Time;durP1;ratioP1;P1;durP2;ratioP2;P2;SDS_P1;SDS_P2;PMS_P1;PMS_P2;Temp;Humidity;BMP_temperature;BMP_pressure;BME280_temperature;BME280_humidity;BME280_pressure;Samples;Min_cycle;Max_cycle;Signal;HPM_P1;HPM_P2
2022/03/03 00:01:04;;;;;;;29.92;15.77;;;2.60;63.30;;;;;;4924427;28;20039;-66
2022/03/03 00:03:29;;;;;;;26.33;15.63;;;2.60;63.50;;;;;;4923840;28;20558;-66
2022/03/03 00:05:55;;;;;;;29.40;16.08;;;2.50;63.50;;;;;;4923610;28;20035;-66
2022/03/03 00:08:20;;;;;;;27.05;16.10;;;2.50;63.70;;;;;;4923273;28;20036;-66
2022/03/03 00:10:46;;;;;;;28.60;16.55;;;2.40;64.00;;;;;;4921790;28;20050;-66
2022/03/03 00:13:12;;;;;;;34.63;17.67;;;2.40;64.00;;;;;;4924847;28;20032;-65
2022/03/03 00:15:38;;;;;;;27.90;17.23;;;2.30;64.20;;;;;;4924338;28;20040;-66
2022/03/03 00:18:03;;;;;;;26.52;16.48;;;2.30;64.40;;;;;;4921295;28;20491;-65
2022/03/03 00:20:29;;;;;;;29.95;16.65;;;2.20;64.50;;;;;;4922018;28;20036;-66
2022/03/03 00:22:57;;;;;;;31.65;18.35;;;2.20;64.60;;;;;;4922810;29;20043;-66
2022/03/03 00:25:23;;;;;;;31.33;16.60;;;2.10;64.70;;;;;;4928761;28;20186;-66
2022/03/03 00:27:49;;;;;;;29.50;16.75;;;2.10;65.80;;;;;;4927245;28;20499;-65
2022/03/03 00:30:15;;;;;;;25.55;15.60;;;2.00;65.00;;;;;;4922833;28;20043;-66
2022/03/03 00:32:41;;;;;;;29.02;16.10;;;2.00;65.10;;;;;;4921847;28;20063;-65
2022/03/03 00:35:08;;;;;;;29.38;16.20;;;1.90;65.20;;;;;;4923038;29;20315;-65
2022/03/03 00:37:34;;;;;;;25.08;15.30;;;1.90;65.30;;;;;;4922690;28;20310;-65
2022/03/03 00:40:00;;;;;;;27.48;15.25;;;1.90;65.30;;;;;;4922504;28;20059;-65
2022/03/03 00:42:25;;;;;;;28.25;15.77;;;1.80;65.30;;;;;;4942821;28;20320;-65
2022/03/03 00:44:51;;;;;;;29.67;16.35;;;1.80;65.20;;;;;;4922055;28;20036;-65
2022/03/03 00:47:16;;;;;;;30.80;17.20;;;1.80;65.30;;;;;;4923482;28;20115;-65
2022/03/03 00:49:42;;;;;;;33.00;17.10;;;1.80;65.40;;;;;;4921874;29;20119;-66
2022/03/03 00:52:11;;;;;;;30.42;16.83;;;1.70;65.40;;;;;;4924337;28;20031;-65
2022/03/03 00:54:36;;;;;;;28.08;17.52;;;1.70;65.70;;;;;;4923047;28;20027;-65
2022/03/03 00:57:02;;;;;;;29.30;16.77;;;1.70;65.70;;;;;;4925906;28;20523;-66
2022/03/03 00:59:28;;;;;;;30.70;17.25;;;1.60;65.80;;;;;;4921727;28;20232;-65
2022/03/03 01:01:54;;;;;;;26.98;16.90;;;1.60;65.90;;;;;;4923142;28;20027;-63
2022/03/03 01:04:20;;;;;;;25.73;15.52;;;1.60;65.90;;;;;;4925560;29;20039;-65
2022/03/03 01:06:45;;;;;;;28.15;16.58;;;1.50;66.00;;;;;;4927017;28;20043;-65
2022/03/03 01:09:11;;;;;;;25.92;16.15;;;1.50;66.00;;;;;;4925764;28;20165;-65
2022/03/03 01:11:37;;;;;;;29.33;16.00;;;1.50;66.10;;;;;;4926053;28;20067;-65
2022/03/03 01:14:05;;;;;;;25.27;15.32;;;1.40;66.00;;;;;;4931774;28;20032;-66
2022/03/03 01:16:31;;;;;;;24.42;15.50;;;1.40;66.00;;;;;;4930725;28;20067;-66
2022/03/03 01:18:56;;;;;;;28.98;16.60;;;1.50;66.00;;;;;;4923065;29;20054;-65
2022/03/03 01:21:22;;;;;;;27.50;15.55;;;1.50;66.00;;;;;;4931532;28;20612;-66
2022/03/03 01:23:47;;;;;;;28.42;15.35;;;1.40;65.80;;;;;;4931332;28;20039;-66
2022/03/03 01:26:14;;;;;;;28.75;16.17;;;1.50;65.60;;;;;;4952181;28;20595;-65
2022/03/03 01:28:40;;;;;;;30.27;16.33;;;1.50;65.60;;;;;;4930968;28;20126;-66
2022/03/03 01:31:05;;;;;;;25.33;15.88;;;1.40;65.60;;;;;;4932045;28;20171;-65
2022/03/03 01:33:31;;;;;;;28.88;16.67;;;1.40;65.60;;;;;;4930503;28;20047;-65
2022/03/03 01:35:57;;;;;;;31.33;15.85;;;1.40;65.80;;;;;;4931885;28;20233;-65
2022/03/03 01:38:22;;;;;;;26.42;15.65;;;1.30;65.80;;;;;;4924545;29;20503;-65
2022/03/03 01:40:48;;;;;;;27.90;16.23;;;1.30;65.90;;;;;;4930632;28;20141;-66
2022/03/03 01:43:14;;;;;;;32.00;17.23;;;1.30;65.90;;;;;;4924227;29;20050;-66
2022/03/03 01:45:39;;;;;;;35.45;19.10;;;1.30;65.80;;;;;;4931184;28;20027;-65
2022/03/03 01:48:05;;;;;;;34.10;17.98;;;1.20;65.80;;;;;;4931269;28;20032;-65
2022/03/03 01:50:31;;;;;;;33.90;17.45;;;1.30;65.80;;;;;;4930699;28;20036;-66
2022/03/03 01:52:57;;;;;;;30.48;17.67;;;1.20;65.90;;;;;;4931271;28;20036;-65
2022/03/03 01:55:23;;;;;;;30.00;17.13;;;1.10;66.00;;;;;;4929835;28;20028;-66
2022/03/03 01:57:50;;;;;;;29.58;16.75;;;1.10;66.00;;;;;;4931918;28;20032;-65
2022/03/03 02:00:16;;;;;;;28.60;17.02;;;1.10;66.10;;;;;;4930250;28;20040;-65
2022/03/03 02:02:42;;;;;;;30.48;17.10;;;1.00;66.30;;;;;;4928734;28;20499;-66
2022/03/03 02:05:08;;;;;;;27.92;17.05;;;0.90;66.50;;;;;;4924963;28;20038;-66
2022/03/03 02:07:34;;;;;;;29.48;17.73;;;0.90;66.80;;;;;;4923593;28;20031;-65
2022/03/03 02:10:04;;;;;;;31.42;17.83;;;0.80;66.80;;;;;;4925355;28;20036;-65
2022/03/03 02:12:30;;;;;;;30.85;17.52;;;0.80;67.00;;;;;;4923092;28;20086;-65
2022/03/03 02:14:56;;;;;;;34.70;17.73;;;0.70;66.80;;;;;;4925876;28;20035;-65
2022/03/03 02:17:22;;;;;;;32.92;18.52;;;0.70;67.00;;;;;;4925396;28;20032;-65
2022/03/03 02:19:48;;;;;;;33.22;18.27;;;0.70;67.90;;;;;;4938898;28;20028;-65
2022/03/03 02:22:14;;;;;;;27.95;17.75;;;0.60;67.00;;;;;;4925569;28;20410;-66
2022/03/03 02:24:40;;;;;;;32.72;19.13;;;0.60;67.10;;;;;;4923468;28;20463;-66
2022/03/03 02:27:07;;;;;;;31.45;19.38;;;0.60;67.00;;;;;;4925663;28;20040;-66
2022/03/03 02:29:34;;;;;;;34.08;18.42;;;0.60;67.00;;;;;;4924370;28;20040;-66
2022/03/03 02:32:01;;;;;;;38.15;17.98;;;0.60;67.20;;;;;;4925901;28;20050;-66
2022/03/03 02:34:26;;;;;;;27.75;16.38;;;0.60;67.20;;;;;;4924036;28;20126;-66
2022/03/03 02:36:52;;;;;;;28.08;17.40;;;0.50;67.20;;;;;;4924875;28;20114;-65
2022/03/03 02:39:18;;;;;;;30.60;16.38;;;0.50;67.20;;;;;;4926409;28;20036;-66
2022/03/03 02:41:43;;;;;;;37.10;17.70;;;0.50;67.20;;;;;;4924433;28;20122;-66
2022/03/03 02:44:09;;;;;;;29.83;17.55;;;0.50;68.10;;;;;;4928290;28;20039;-66
2022/03/03 02:46:35;;;;;;;33.83;17.08;;;0.50;67.20;;;;;;4923788;28;20324;-65
2022/03/03 02:49:00;;;;;;;29.27;16.92;;;0.50;67.20;;;;;;4924572;28;20027;-66
2022/03/03 02:51:26;;;;;;;25.08;15.80;;;0.60;67.10;;;;;;4924188;29;20582;-65
2022/03/03 02:53:52;;;;;;;28.30;16.50;;;0.60;66.90;;;;;;4927183;28;20040;-66
2022/03/03 02:56:18;;;;;;;30.63;16.65;;;0.60;66.80;;;;;;4925137;28;20063;-66
2022/03/03 02:58:44;;;;;;;30.52;16.08;;;0.60;66.60;;;;;;4923280;28;20291;-65
2022/03/03 03:01:10;;;;;;;31.52;17.75;;;0.60;67.40;;;;;;4925731;29;20035;-65
2022/03/03 03:03:36;;;;;;;30.88;16.42;;;0.50;66.50;;;;;;4925090;28;20063;-65
2022/03/03 03:06:02;;;;;;;28.92;16.63;;;0.50;66.60;;;;;;4923211;28;20340;-65
2022/03/03 03:08:28;;;;;;;29.38;15.82;;;0.50;66.60;;;;;;4924903;28;20475;-66
2022/03/03 03:10:54;;;;;;;27.48;15.55;;;0.50;66.60;;;;;;4921345;29;20525;-65
2022/03/03 03:13:19;;;;;;;29.95;16.88;;;0.50;66.40;;;;;;4921480;29;20063;-66
2022/03/03 03:15:45;;;;;;;31.67;16.90;;;0.50;66.30;;;;;;4925394;28;20040;-65
2022/03/03 03:18:12;;;;;;;30.50;16.83;;;0.50;66.30;;;;;;4926762;28;20050;-66
2022/03/03 03:20:45;;;;;;;30.25;16.48;;;0.50;66.30;;;;;;4925333;28;20036;-66
2022/03/03 03:23:13;;;;;;;30.42;16.95;;;0.50;66.50;;;;;;4924176;28;20122;-65
2022/03/03 03:25:43;;;;;;;31.02;16.13;;;0.40;66.30;;;;;;4924510;28;20055;-67
2022/03/03 03:28:11;;;;;;;29.75;16.45;;;0.40;66.20;;;;;;4923301;28;20046;-66
2022/03/03 03:30:36;;;;;;;28.67;16.77;;;0.40;66.30;;;;;;4923402;28;20087;-66
2022/03/03 03:33:02;;;;;;;28.35;16.13;;;0.40;66.10;;;;;;4924847;28;20040;-66
2022/03/03 03:35:28;;;;;;;28.83;16.55;;;0.30;66.10;;;;;;4921543;28;20174;-66
2022/03/03 03:37:54;;;;;;;28.25;16.13;;;0.30;66.10;;;;;;4925015;28;20038;-66
2022/03/03 03:40:20;;;;;;;31.42;16.73;;;0.30;66.20;;;;;;4922079;28;20614;-66
2022/03/03 03:42:46;;;;;;;27.83;16.67;;;0.20;66.30;;;;;;4923167;28;20202;-66
2022/03/03 03:45:12;;;;;;;30.00;17.65;;;0.20;66.40;;;;;;4923206;28;20490;-66
2022/03/03 03:47:39;;;;;;;31.00;17.33;;;0.10;66.30;;;;;;4923170;28;20063;-66
2022/03/03 03:50:08;;;;;;;29.77;17.17;;;0.10;66.50;;;;;;4923257;28;20035;-66
2022/03/03 03:52:35;;;;;;;32.40;17.25;;;0.00;66.60;;;;;;4925116;28;20024;-65
2022/03/03 03:55:01;;;;;;;30.55;17.75;;;-0.10;66.60;;;;;;4918829;29;20064;-65
2022/03/03 03:57:27;;;;;;;31.00;16.98;;;-0.10;67.00;;;;;;4924008;28;20032;-66
2022/03/03 03:59:52;;;;;;;30.38;16.52;;;-0.20;67.20;;;;;;4922845;28;20038;-65
2022/03/03 04:02:18;;;;;;;31.42;16.42;;;-0.30;67.40;;;;;;4925523;28;20031;-66
2022/03/03 04:04:44;;;;;;;32.17;16.63;;;-0.30;67.60;;;;;;4924103;28;20118;-65
2022/03/03 04:07:09;;;;;;;26.27;15.90;;;-0.40;67.70;;;;;;4922548;28;20036;-65
2022/03/03 04:09:35;;;;;;;30.00;17.38;;;-0.40;67.90;;;;;;4921782;28;20459;-65
2022/03/03 04:12:02;;;;;;;31.75;16.42;;;-0.40;67.90;;;;;;4920681;29;20103;-65
2022/03/03 04:14:28;;;;;;;30.38;16.55;;;-0.40;68.00;;;;;;4923835;28;20110;-66
2022/03/03 04:16:53;;;;;;;30.27;16.65;;;-0.50;68.00;;;;;;4925410;28;20528;-65
2022/03/03 04:19:19;;;;;;;27.70;15.63;;;-0.40;68.10;;;;;;4923526;28;20040;-66
2022/03/03 04:21:44;;;;;;;29.92;16.98;;;-0.50;68.00;;;;;;4923777;28;20039;-66
2022/03/03 04:24:11;;;;;;;32.65;16.27;;;-0.50;68.00;;;;;;4923026;28;20058;-66
2022/03/03 04:26:36;;;;;;;30.52;16.58;;;-0.50;68.20;;;;;;4922529;28;20119;-65
2022/03/03 04:29:03;;;;;;;25.98;16.13;;;-0.50;68.10;;;;;;4922650;28;20523;-66
2022/03/03 04:31:29;;;;;;;28.60;16.27;;;-0.50;68.10;;;;;;4923440;28;20039;-65
2022/03/03 04:33:56;;;;;;;29.92;16.20;;;-0.50;68.00;;;;;;4921143;28;20036;-66
2022/03/03 04:36:22;;;;;;;30.52;17.33;;;-0.50;68.00;;;;;;4923688;28;20491;-65
2022/03/03 04:38:50;;;;;;;29.02;16.45;;;-0.50;67.90;;;;;;4921169;28;20087;-65
2022/03/03 04:41:16;;;;;;;30.10;17.05;;;-0.50;67.90;;;;;;4922026;28;20035;-65
2022/03/03 04:43:42;;;;;;;31.35;16.75;;;-0.50;67.80;;;;;;4925215;28;20032;-65
2022/03/03 04:46:08;;;;;;;27.10;17.05;;;-0.50;67.90;;;;;;4922376;28;20062;-65
2022/03/03 04:48:34;;;;;;;29.80;16.73;;;-0.50;67.80;;;;;;4927466;28;20408;-66
2022/03/03 04:51:00;;;;;;;30.33;17.25;;;-0.60;67.70;;;;;;4924776;28;20563;-65
2022/03/03 04:53:26;;;;;;;32.08;16.73;;;-0.60;67.80;;;;;;4926842;28;20040;-65
2022/03/03 04:55:52;;;;;;;30.90;17.40;;;-0.60;68.70;;;;;;4926541;28;20443;-66
2022/03/03 04:58:18;;;;;;;27.05;16.25;;;-0.60;67.90;;;;;;4926776;28;20048;-63
2022/03/03 05:00:43;;;;;;;26.45;15.38;;;-0.70;67.90;;;;;;4922360;28;20042;-66
2022/03/03 05:03:09;;;;;;;33.55;17.02;;;-0.70;67.80;;;;;;4928424;28;20039;-66
2022/03/03 05:05:35;;;;;;;27.67;16.05;;;-0.70;67.90;;;;;;4926787;28;20434;-65
2022/03/03 05:08:01;;;;;;;26.85;16.10;;;-0.70;67.90;;;;;;4928689;28;20032;-66
2022/03/03 05:10:26;;;;;;;25.23;15.50;;;-0.80;67.90;;;;;;4927559;28;20055;-66
2022/03/03 05:12:52;;;;;;;25.38;15.43;;;-0.80;67.90;;;;;;4925674;28;22057;-66
2022/03/03 05:15:18;;;;;;;30.27;16.67;;;-0.80;67.90;;;;;;4925542;28;20527;-65
2022/03/03 05:17:43;;;;;;;28.40;15.93;;;-0.90;67.80;;;;;;4927530;28;20060;-66
2022/03/03 05:20:10;;;;;;;32.28;17.45;;;-0.80;67.80;;;;;;4926893;28;20352;-64
2022/03/03 05:22:35;;;;;;;28.38;16.85;;;-0.80;67.80;;;;;;4925029;28;20538;-65
2022/03/03 05:25:01;;;;;;;36.95;16.77;;;-0.90;67.70;;;;;;4925611;28;20039;-66
2022/03/03 05:27:27;;;;;;;30.48;16.85;;;-0.90;67.80;;;;;;4925571;28;20044;-66
2022/03/03 05:29:53;;;;;;;28.88;16.20;;;-0.90;67.80;;;;;;4924263;28;20039;-65
2022/03/03 05:32:18;;;;;;;35.63;17.15;;;-1.00;67.70;;;;;;4923245;28;20082;-65
2022/03/03 05:34:44;;;;;;;30.02;16.95;;;-1.00;67.90;;;;;;4910993;28;20067;-65
2022/03/03 05:37:10;;;;;;;30.35;18.00;;;-1.00;68.00;;;;;;4925010;28;20055;-65
2022/03/03 05:39:36;;;;;;;34.97;19.42;;;-1.10;68.00;;;;;;4924504;28;20118;-64
2022/03/03 05:42:03;;;;;;;36.30;20.00;;;-1.10;68.20;;;;;;4926556;28;20429;-66
2022/03/03 05:44:28;;;;;;;47.10;24.40;;;-1.20;68.10;;;;;;4926524;28;20059;-66
2022/03/03 05:46:55;;;;;;;74.50;32.00;;;-1.20;68.20;;;;;;4924822;29;20452;-66
2022/03/03 05:49:22;;;;;;;79.85;38.03;;;-1.30;68.40;;;;;;4927335;28;20067;-66
2022/03/03 05:51:48;;;;;;;86.07;41.30;;;-1.30;68.50;;;;;;4928006;28;20032;-66
2022/03/03 05:54:14;;;;;;;70.97;35.38;;;-1.30;68.60;;;;;;4925798;29;20038;-66
2022/03/03 05:56:44;;;;;;;65.53;32.45;;;-1.30;68.60;;;;;;4925992;28;20028;-66
2022/03/03 05:59:14;;;;;;;60.25;29.50;;;-1.30;68.60;;;;;;4926591;29;20436;-66
2022/03/03 06:01:42;;;;;;;45.92;25.48;;;-1.30;68.60;;;;;;4927949;28;20700;-66
2022/03/03 06:04:13;;;;;;;51.95;25.95;;;-1.40;68.60;;;;;;4926572;28;20447;-65
2022/03/03 06:06:53;;;;;;;43.15;24.05;;;-1.40;68.90;;;;;;4926592;28;20043;-66
2022/03/03 06:09:25;;;;;;;42.63;22.88;;;-1.40;69.00;;;;;;4927017;28;20160;-66
2022/03/03 06:12:06;;;;;;;42.05;22.45;;;-1.40;68.90;;;;;;4924077;29;20364;-66
2022/03/03 06:14:43;;;;;;;40.05;22.05;;;-1.40;69.20;;;;;;4926965;28;20035;-65
2022/03/03 06:17:09;;;;;;;41.10;21.98;;;-1.40;69.00;;;;;;4927501;28;20035;-66
2022/03/03 06:19:41;;;;;;;39.55;22.25;;;-1.40;68.90;;;;;;4925509;28;20550;-66
2022/03/03 06:22:08;;;;;;;38.20;21.83;;;-1.40;69.10;;;;;;4925848;28;20418;-66
2022/03/03 06:24:34;;;;;;;33.33;20.30;;;-1.40;69.10;;;;;;4926062;28;20036;-66
2022/03/03 06:27:01;;;;;;;34.72;20.08;;;-1.40;69.30;;;;;;4926080;29;20036;-66
2022/03/03 06:29:27;;;;;;;34.90;20.85;;;-1.40;69.30;;;;;;4925748;28;20465;-66
2022/03/03 06:31:53;;;;;;;39.30;20.30;;;-1.40;69.40;;;;;;4926135;29;20048;-66
2022/03/03 06:34:20;;;;;;;37.20;20.80;;;-1.40;69.30;;;;;;4927396;28;20082;-65
2022/03/03 06:36:46;;;;;;;38.28;19.92;;;-1.30;69.40;;;;;;4928366;28;20055;-66
2022/03/03 06:39:12;;;;;;;40.45;19.63;;;-1.30;69.40;;;;;;4928707;29;20048;-66
2022/03/03 06:41:38;;;;;;;38.35;19.17;;;-1.30;69.50;;;;;;4928388;28;20399;-67
2022/03/03 06:44:05;;;;;;;33.17;19.70;;;-1.30;69.60;;;;;;4951504;28;20031;-66
2022/03/03 06:46:31;;;;;;;39.65;19.58;;;-1.20;69.70;;;;;;4926796;28;20395;-66
2022/03/03 06:48:56;;;;;;;39.97;20.42;;;-1.20;69.80;;;;;;4933886;28;20452;-67
2022/03/03 06:51:25;;;;;;;44.55;20.50;;;-1.20;69.90;;;;;;4927366;29;20107;-66
2022/03/03 06:53:57;;;;;;;42.80;22.38;;;-1.20;70.00;;;;;;4927602;28;20024;-66
2022/03/03 06:56:25;;;;;;;37.88;20.95;;;-1.20;70.30;;;;;;4926069;29;20039;-66
2022/03/03 06:58:54;;;;;;;43.08;22.45;;;-1.10;70.30;;;;;;4926080;29;20083;-65
2022/03/03 07:01:21;;;;;;;52.58;23.35;;;-1.10;70.30;;;;;;4922112;28;20043;-66
2022/03/03 07:03:48;;;;;;;49.15;23.67;;;-1.00;70.60;;;;;;4921054;29;20399;-66
2022/03/03 07:06:14;;;;;;;43.65;22.90;;;-1.00;70.70;;;;;;4925467;28;20035;-66
2022/03/03 07:08:42;;;;;;;44.60;22.80;;;-0.90;71.00;;;;;;4924405;28;20032;-64
2022/03/03 07:11:08;;;;;;;40.22;21.83;;;-0.90;71.20;;;;;;4921079;28;20032;-66
2022/03/03 07:13:33;;;;;;;50.25;23.85;;;-0.80;71.20;;;;;;4926120;28;20120;-66
2022/03/03 07:16:14;;;;;;;42.83;21.92;;;-0.80;71.10;;;;;;4924885;28;20032;-66
2022/03/03 07:18:42;;;;;;;37.72;21.13;;;-0.70;71.70;;;;;;4922158;28;20036;-65
2022/03/03 07:21:16;;;;;;;45.03;21.70;;;-0.60;71.20;;;;;;4923856;29;20050;-66
2022/03/03 07:24:04;;;;;;;51.80;22.50;;;-0.60;71.50;;;;;;4921594;28;20039;-66
2022/03/03 07:26:32;;;;;;;39.45;20.95;;;-0.50;72.00;;;;;;4926716;28;20032;-66
2022/03/03 07:29:00;;;;;;;40.15;21.08;;;-0.40;71.60;;;;;;4927046;28;20035;-65
2022/03/03 07:31:31;;;;;;;35.05;19.65;;;-0.40;71.70;;;;;;4927184;28;20047;-66
2022/03/03 07:34:00;;;;;;;35.17;19.98;;;-0.30;72.20;;;;;;4926300;28;20034;-65
2022/03/03 07:36:28;;;;;;;32.80;20.00;;;-0.20;72.80;;;;;;4923537;28;20036;-65
2022/03/03 07:38:58;;;;;;;37.25;21.20;;;-0.10;73.00;;;;;;4926604;28;20063;-66
2022/03/03 07:41:25;;;;;;;36.97;20.48;;;-0.10;73.30;;;;;;4924489;29;20043;-66
2022/03/03 07:43:52;;;;;;;34.47;21.02;;;0.00;73.20;;;;;;4924928;28;20553;-66
2022/03/03 07:46:18;;;;;;;40.63;21.38;;;0.10;73.10;;;;;;4923735;28;20534;-66
2022/03/03 07:48:47;;;;;;;33.40;20.17;;;0.10;73.00;;;;;;4924026;28;20044;-66
2022/03/03 07:51:13;;;;;;;35.85;20.80;;;0.20;73.10;;;;;;4924028;28;20047;-66
2022/03/03 07:53:39;;;;;;;33.55;20.63;;;0.30;72.90;;;;;;4924966;29;20521;-66
2022/03/03 07:56:05;;;;;;;32.60;19.25;;;0.40;72.60;;;;;;4924542;28;20036;-67
2022/03/03 07:58:41;;;;;;;39.05;20.45;;;0.50;72.60;;;;;;4923306;28;20041;-65
2022/03/03 08:01:08;;;;;;;38.25;20.67;;;0.60;72.70;;;;;;4923533;29;20631;-65
2022/03/03 08:03:35;;;;;;;35.10;20.45;;;0.70;72.30;;;;;;4924138;28;20059;-66
2022/03/03 08:06:01;;;;;;;41.30;20.23;;;0.80;72.00;;;;;;4924896;29;20044;-66
2022/03/03 08:08:29;;;;;;;34.78;20.20;;;0.90;72.00;;;;;;4919477;28;20043;-66
2022/03/03 08:11:02;;;;;;;34.17;19.75;;;1.00;71.90;;;;;;4920840;29;20050;-66
2022/03/03 08:13:29;;;;;;;36.08;20.02;;;1.10;72.20;;;;;;4920580;29;20082;-66
2022/03/03 08:15:56;;;;;;;37.92;20.33;;;1.20;72.20;;;;;;4923386;28;20044;-65
2022/03/03 08:18:26;;;;;;;34.75;19.83;;;1.30;71.90;;;;;;4924691;28;20028;-65
2022/03/03 08:20:54;;;;;;;33.28;19.65;;;1.40;71.70;;;;;;4923597;28;20036;-65
2022/03/03 08:23:23;;;;;;;31.05;18.90;;;1.50;71.30;;;;;;4923972;28;20500;-66
2022/03/03 08:25:49;;;;;;;35.72;19.55;;;1.60;72.00;;;;;;4922520;29;20075;-66
2022/03/03 08:28:17;;;;;;;37.83;20.92;;;1.70;71.10;;;;;;4924111;28;20055;-66
2022/03/03 08:30:44;;;;;;;34.78;20.55;;;1.90;71.20;;;;;;4923606;28;20036;-65
2022/03/03 08:33:19;;;;;;;32.58;19.27;;;2.00;71.00;;;;;;4925605;29;20063;-66
2022/03/03 08:35:54;;;;;;;35.88;19.70;;;2.10;70.90;;;;;;4923825;29;20527;-65
2022/03/03 08:38:37;;;;;;;36.30;20.85;;;2.20;71.10;;;;;;4924964;28;20554;-66
2022/03/03 08:41:04;;;;;;;31.85;20.30;;;2.30;71.90;;;;;;4926126;28;20040;-66
2022/03/03 08:43:32;;;;;;;36.70;20.40;;;2.40;71.50;;;;;;4925450;28;20062;-66
2022/03/03 08:46:02;;;;;;;33.40;20.02;;;2.50;71.20;;;;;;4926065;28;20407;-66
2022/03/03 08:48:30;;;;;;;37.03;21.15;;;2.60;71.00;;;;;;4923409;28;20039;-65
2022/03/03 08:50:56;;;;;;;34.25;21.38;;;2.80;71.00;;;;;;4907339;28;20111;-65
2022/03/03 08:53:22;;;;;;;31.40;20.23;;;2.80;70.60;;;;;;4906249;29;20464;-65
2022/03/03 08:55:47;;;;;;;35.67;21.30;;;2.90;70.20;;;;;;4907000;28;20043;-65
2022/03/03 08:58:14;;;;;;;36.10;22.85;;;3.00;70.00;;;;;;4904867;29;20048;-66
2022/03/03 09:00:40;;;;;;;35.33;21.40;;;3.10;69.40;;;;;;4904128;28;20099;-65
2022/03/03 09:03:06;;;;;;;32.85;20.67;;;3.10;68.90;;;;;;4901547;28;20048;-66
2022/03/03 09:05:32;;;;;;;31.75;19.08;;;3.20;68.70;;;;;;4906808;29;20536;-66
2022/03/03 09:07:58;;;;;;;32.45;19.30;;;3.30;68.60;;;;;;4908389;28;20088;-66
2022/03/03 09:10:24;;;;;;;36.30;20.85;;;3.30;68.50;;;;;;4906049;28;20091;-66
2022/03/03 09:12:50;;;;;;;31.83;19.20;;;3.40;68.00;;;;;;4905510;28;20055;-66
2022/03/03 09:15:16;;;;;;;30.90;19.55;;;3.50;67.90;;;;;;4906805;28;20033;-66
2022/03/03 09:17:43;;;;;;;29.25;18.02;;;3.60;67.90;;;;;;4906426;28;20196;-65
2022/03/03 09:20:13;;;;;;;32.92;19.05;;;3.60;67.70;;;;;;4905333;28;20025;-65
2022/03/03 09:22:40;;;;;;;29.05;18.10;;;3.70;67.60;;;;;;4906148;28;20028;-66
2022/03/03 09:25:06;;;;;;;28.50;18.17;;;3.80;67.60;;;;;;4907563;28;20044;-66
2022/03/03 09:27:31;;;;;;;33.60;19.98;;;3.80;67.50;;;;;;4904958;29;20526;-65
2022/03/03 09:29:57;;;;;;;33.92;19.33;;;3.90;67.40;;;;;;4905576;28;20036;-66
2022/03/03 09:32:23;;;;;;;29.45;18.50;;;4.00;67.20;;;;;;4908339;28;20071;-66
2022/03/03 09:34:48;;;;;;;29.50;18.85;;;4.10;67.00;;;;;;4912750;28;20036;-66
2022/03/03 09:37:14;;;;;;;28.88;18.45;;;4.20;67.00;;;;;;4921847;29;20038;-65
2022/03/03 09:39:40;;;;;;;27.60;18.60;;;4.20;66.80;;;;;;4909907;28;20536;-67
2022/03/03 09:42:08;;;;;;;30.40;19.67;;;4.40;66.60;;;;;;4910064;29;20063;-66
2022/03/03 09:44:34;;;;;;;27.42;18.65;;;4.40;66.10;;;;;;4908558;28;20595;-66
2022/03/03 09:46:59;;;;;;;27.35;18.75;;;4.50;65.80;;;;;;4909307;28;20080;-65
2022/03/03 09:49:25;;;;;;;29.92;19.25;;;4.60;65.60;;;;;;4909392;29;20047;-64
2022/03/03 09:51:51;;;;;;;32.40;19.20;;;4.60;65.60;;;;;;4909964;28;20035;-65
2022/03/03 09:54:18;;;;;;;31.65;18.75;;;4.70;65.70;;;;;;4910934;29;20083;-65
2022/03/03 09:56:45;;;;;;;29.88;18.63;;;4.80;65.70;;;;;;4911425;28;20036;-65
2022/03/03 09:59:12;;;;;;;28.02;18.20;;;4.90;65.70;;;;;;4930877;28;20535;-66
2022/03/03 10:01:38;;;;;;;27.83;18.80;;;5.00;65.40;;;;;;4929783;28;20487;-65
2022/03/03 10:04:24;;;;;;;30.38;19.85;;;5.10;65.40;;;;;;4930372;28;20099;-65
2022/03/03 10:06:50;;;;;;;28.60;18.60;;;5.20;65.00;;;;;;4910892;28;20067;-65
2022/03/03 10:09:17;;;;;;;27.88;18.25;;;5.30;65.20;;;;;;4909487;29;20051;-65
2022/03/03 10:11:49;;;;;;;26.25;18.73;;;5.40;65.10;;;;;;4907475;28;20049;-66
2022/03/03 10:14:28;;;;;;;31.02;19.75;;;5.50;64.40;;;;;;4906717;29;20064;-65
2022/03/03 10:16:54;;;;;;;29.20;19.13;;;5.60;64.30;;;;;;4907846;28;20105;-65
2022/03/03 10:19:20;;;;;;;27.52;18.75;;;5.70;64.30;;;;;;4910434;28;20171;-66
2022/03/03 10:21:45;;;;;;;30.40;18.77;;;5.80;64.30;;;;;;4909798;28;20061;-66
2022/03/03 10:24:37;;;;;;;29.38;18.75;;;5.90;64.20;;;;;;4911671;28;20040;-66
2022/03/03 10:27:06;;;;;;;29.17;18.20;;;6.00;63.70;;;;;;4914676;28;20399;-65
2022/03/03 10:29:33;;;;;;;26.77;18.13;;;6.10;63.80;;;;;;4929551;28;20054;-64
2022/03/03 10:32:02;;;;;;;31.02;19.50;;;6.20;63.70;;;;;;4928874;28;20036;-65
2022/03/03 10:34:33;;;;;;;28.80;18.98;;;6.20;63.60;;;;;;4928219;28;20091;-66
2022/03/03 10:37:01;;;;;;;29.45;18.42;;;6.30;62.30;;;;;;4928760;28;20508;-65
2022/03/03 10:39:48;;;;;;;30.20;18.70;;;6.40;62.90;;;;;;4928101;28;20044;-65
2022/03/03 10:42:19;;;;;;;32.13;18.67;;;6.50;62.50;;;;;;4927393;28;20040;-66
2022/03/03 10:44:46;;;;;;;29.50;18.65;;;6.50;62.50;;;;;;4926374;28;20123;-65
2022/03/03 10:47:24;;;;;;;28.98;18.33;;;6.60;62.30;;;;;;4928390;28;20094;-65
2022/03/03 10:49:53;;;;;;;28.75;18.23;;;6.70;62.20;;;;;;4915767;29;20403;-65
2022/03/03 10:52:25;;;;;;;26.85;17.75;;;6.80;62.00;;;;;;4908407;28;20051;-66
2022/03/03 10:55:01;;;;;;;30.27;17.70;;;6.90;61.30;;;;;;4909716;28;20032;-66
2022/03/03 10:57:39;;;;;;;25.75;16.60;;;7.00;60.80;;;;;;4907120;28;20044;-65
2022/03/03 11:00:09;;;;;;;25.35;17.60;;;7.10;61.00;;;;;;4907498;28;20091;-66
2022/03/03 11:02:35;;;;;;;28.85;18.15;;;7.20;60.60;;;;;;4910714;28;20078;-65
2022/03/03 11:05:01;;;;;;;30.80;17.15;;;7.20;60.20;;;;;;4908854;28;20575;-65
2022/03/03 11:07:29;;;;;;;27.20;16.15;;;7.30;60.00;;;;;;4909987;28;20099;-64
2022/03/03 11:09:55;;;;;;;28.73;16.95;;;7.40;59.90;;;;;;4910194;28;20099;-66
2022/03/03 11:12:21;;;;;;;24.25;16.90;;;7.50;59.70;;;;;;4906655;28;20032;-66
2022/03/03 11:14:47;;;;;;;28.33;17.98;;;7.60;59.40;;;;;;4907570;28;20048;-65
2022/03/03 11:17:13;;;;;;;27.08;17.30;;;7.60;58.20;;;;;;4909994;29;20419;-65
2022/03/03 11:19:40;;;;;;;25.65;16.17;;;7.70;58.60;;;;;;4909199;29;20036;-65
2022/03/03 11:22:06;;;;;;;25.88;17.48;;;7.80;59.00;;;;;;4907761;29;20556;-65
2022/03/03 11:24:36;;;;;;;24.75;16.50;;;7.90;58.90;;;;;;4909302;28;20051;-65
2022/03/03 11:27:03;;;;;;;26.75;17.63;;;7.90;59.00;;;;;;4908005;29;20056;-64
2022/03/03 11:29:31;;;;;;;24.90;16.65;;;8.00;58.80;;;;;;4910370;28;20583;-65
2022/03/03 11:32:03;;;;;;;24.52;16.80;;;8.10;58.70;;;;;;4909686;28;20119;-65
2022/03/03 11:34:32;;;;;;;24.73;16.60;;;8.20;58.30;;;;;;4909581;28;20047;-65
2022/03/03 11:37:15;;;;;;;19.70;15.10;;;8.20;58.40;;;;;;4909463;29;20040;-65
2022/03/03 11:40:07;;;;;;;28.05;16.35;;;8.30;58.50;;;;;;4908750;28;20056;-65
2022/03/03 11:42:46;;;;;;;22.55;15.20;;;8.40;58.00;;;;;;4908733;28;20029;-65
2022/03/03 11:45:15;;;;;;;21.70;14.85;;;8.40;57.10;;;;;;4911512;29;20040;-66
2022/03/03 11:47:47;;;;;;;23.42;14.80;;;8.50;57.10;;;;;;4909456;28;20488;-65
2022/03/03 11:50:22;;;;;;;20.48;13.57;;;8.60;57.30;;;;;;4911056;29;20044;-63
2022/03/03 11:53:18;;;;;;;19.48;12.93;;;8.70;56.70;;;;;;4911290;28;20052;-65
2022/03/03 11:55:47;;;;;;;18.88;11.82;;;8.80;55.20;;;;;;4908129;28;20064;-65
2022/03/03 11:58:25;;;;;;;22.63;14.15;;;8.90;55.70;;;;;;4926100;29;20044;-66
2022/03/03 12:01:05;;;;;;;22.13;14.32;;;8.90;54.50;;;;;;4908968;29;20453;-65
2022/03/03 12:03:32;;;;;;;21.17;14.48;;;9.00;55.00;;;;;;4912298;28;20581;-65
2022/03/03 12:06:04;;;;;;;22.80;14.95;;;9.10;55.80;;;;;;4911223;29;20059;-65
2022/03/03 12:08:32;;;;;;;20.90;14.10;;;9.20;56.00;;;;;;4908886;28;20084;-65
2022/03/03 12:11:07;;;;;;;21.55;13.93;;;9.30;55.60;;;;;;4907100;28;20044;-65
2022/03/03 12:13:38;;;;;;;23.15;14.52;;;9.40;55.20;;;;;;4908833;29;20040;-64
2022/03/03 12:16:28;;;;;;;21.52;14.57;;;9.50;55.10;;;;;;4908928;28;20512;-66
2022/03/03 12:18:58;;;;;;;23.95;15.32;;;9.60;54.40;;;;;;4906746;28;20580;-65
2022/03/03 12:21:36;;;;;;;20.75;13.73;;;9.70;54.50;;;;;;4909796;28;20575;-65
2022/03/03 12:24:14;;;;;;;23.83;14.25;;;9.80;53.70;;;;;;4909875;28;20047;-66
2022/03/03 12:26:58;;;;;;;26.55;14.35;;;9.90;53.40;;;;;;4908327;28;20035;-66
2022/03/03 12:29:33;;;;;;;20.35;13.27;;;10.00;53.10;;;;;;4907638;28;20036;-63
2022/03/03 12:32:36;;;;;;;22.83;14.23;;;10.00;53.20;;;;;;4908694;28;20108;-65
2022/03/03 12:35:09;;;;;;;22.20;14.30;;;10.10;52.60;;;;;;4908689;28;20385;-64
2022/03/03 12:37:44;;;;;;;23.15;14.05;;;10.20;53.00;;;;;;4905784;28;20400;-65